createdAt,value
2023-03-17T00:01:44.852Z,65.11
2023-03-17T00:04:12.621Z,65.68
2023-03-17T00:06:41.440Z,65.99
2023-03-17T00:09:15.701Z,66.67
2023-03-17T00:11:43.092Z,66.86
2023-03-17T00:14:09.947Z,66.22
2023-03-17T00:16:42.400Z,67.02
2023-03-17T00:19:33.484Z,67.40
2023-03-17T00:22:00.908Z,67.45
2023-03-17T00:24:28.414Z,67.50
2023-03-17T00:26:55.149Z,66.70
2023-03-17T00:29:21.818Z,67.39
2023-03-17T00:31:50.749Z,66.51
2023-03-17T00:34:18.669Z,66.93
2023-03-17T00:36:50.581Z,67.55
2023-03-17T00:39:18.696Z,67.31
2023-03-17T00:44:14.402Z,69.76
2023-03-17T00:46:41.625Z,68.33
2023-03-17T00:49:18.869Z,70.03
2023-03-17T00:51:46.327Z,70.15
2023-03-17T00:54:14.443Z,70.00
2023-03-17T00:56:41.733Z,71.28
2023-03-17T00:59:29.944Z,71.39
2023-03-17T01:01:57.064Z,72.57
2023-03-17T01:04:23.936Z,69.64
2023-03-17T01:06:51.260Z,70.16
2023-03-17T01:09:18.583Z,69.75
2023-03-17T01:11:45.332Z,68.88
2023-03-17T01:14:12.691Z,67.73
2023-03-17T01:16:39.690Z,68.15
2023-03-17T01:19:06.816Z,67.61
2023-03-17T01:21:33.588Z,68.20
2023-03-17T01:24:00.439Z,67.92
2023-03-17T01:26:27.198Z,69.70
2023-03-17T01:28:53.874Z,68.84
2023-03-17T01:31:20.745Z,69.34
2023-03-17T01:33:47.488Z,68.71
2023-03-17T01:36:14.191Z,68.47
2023-03-17T01:38:41.509Z,68.07
2023-03-17T01:41:08.169Z,66.76
2023-03-17T01:43:34.804Z,67.81
2023-03-17T01:46:22.742Z,69.70
2023-03-17T01:49:15.729Z,69.99
2023-03-17T01:51:51.448Z,70.95
2023-03-17T01:54:43.992Z,69.63
2023-03-17T01:57:16.402Z,69.78
2023-03-17T01:59:55.780Z,70.39
2023-03-17T02:02:34.943Z,70.37
2023-03-17T02:05:03.555Z,69.90
2023-03-17T02:07:30.234Z,70.91
2023-03-17T02:09:58.070Z,69.87
2023-03-17T02:12:25.739Z,71.24
2023-03-17T02:14:54.067Z,71.78
2023-03-17T02:17:22.976Z,71.48
2023-03-17T02:19:49.864Z,72.15
2023-03-17T02:22:18.319Z,70.84
2023-03-17T02:24:58.537Z,72.33
2023-03-17T02:27:36.987Z,71.82
2023-03-17T02:30:06.406Z,72.57
2023-03-17T02:32:36.175Z,71.33
2023-03-17T02:35:03.735Z,70.60
2023-03-17T02:37:30.665Z,71.00
2023-03-17T02:39:57.299Z,72.17
2023-03-17T02:42:23.949Z,71.35
2023-03-17T02:44:50.631Z,71.19
2023-03-17T02:47:17.421Z,72.14
2023-03-17T02:49:44.219Z,70.67
2023-03-17T02:52:11.008Z,73.16
2023-03-17T02:54:37.998Z,73.59
2023-03-17T02:57:04.818Z,70.78
2023-03-17T02:59:31.997Z,71.70
2023-03-17T03:01:58.683Z,70.78
2023-03-17T03:04:26.083Z,69.99
2023-03-17T03:06:53.583Z,69.93
2023-03-17T03:09:20.413Z,71.10
2023-03-17T03:11:47.595Z,70.01
2023-03-17T03:14:14.752Z,71.03
2023-03-17T03:16:41.445Z,70.38
2023-03-17T03:19:08.049Z,70.11
2023-03-17T03:21:34.674Z,69.49
2023-03-17T03:24:01.298Z,69.64
2023-03-17T03:26:28.430Z,69.13
2023-03-17T03:28:57.335Z,68.98
2023-03-17T03:31:24.467Z,68.66
2023-03-17T03:33:51.600Z,69.74
2023-03-17T03:36:18.549Z,70.15
2023-03-17T03:38:45.280Z,69.80
2023-03-17T03:41:11.941Z,70.69
2023-03-17T03:43:38.550Z,68.74
2023-03-17T03:46:05.515Z,69.40
2023-03-17T03:48:32.411Z,68.43
2023-03-17T03:51:00.918Z,69.78
2023-03-17T03:53:28.230Z,69.22
2023-03-17T03:55:55.360Z,69.93
2023-03-17T03:58:22.243Z,69.52
2023-03-17T04:00:49.094Z,69.02
2023-03-17T04:03:16.024Z,69.00
2023-03-17T04:05:42.858Z,69.83
2023-03-17T04:08:09.514Z,69.26
2023-03-17T04:10:36.294Z,70.05
2023-03-17T04:13:03.025Z,68.70
2023-03-17T04:15:29.650Z,68.82
2023-03-17T04:17:56.264Z,68.37
2023-03-17T04:20:23.014Z,69.49
2023-03-17T04:22:49.830Z,69.67
2023-03-17T04:25:16.472Z,70.17
2023-03-17T04:27:43.100Z,70.87
2023-03-17T04:30:13.804Z,69.66
2023-03-17T04:32:40.802Z,68.96
2023-03-17T04:35:09.212Z,69.27
2023-03-17T04:37:36.186Z,69.41
2023-03-17T04:40:02.797Z,69.92
2023-03-17T04:42:32.493Z,69.68
2023-03-17T04:44:59.408Z,69.91
2023-03-17T04:47:26.273Z,68.12
2023-03-17T04:49:52.906Z,68.37
2023-03-17T04:52:20.223Z,69.42
2023-03-17T04:54:46.930Z,69.79
2023-03-17T04:57:13.937Z,69.14
2023-03-17T04:59:40.566Z,68.95
2023-03-17T05:02:07.839Z,69.33
2023-03-17T05:04:34.452Z,69.10
2023-03-17T05:07:01.273Z,69.94
2023-03-17T05:09:28.845Z,69.49
2023-03-17T05:11:55.777Z,68.70
2023-03-17T05:14:22.558Z,68.14
2023-03-17T05:16:55.475Z,69.12
2023-03-17T05:19:23.316Z,69.39
2023-03-17T05:21:49.927Z,68.97
2023-03-17T05:24:16.816Z,70.56
2023-03-17T05:26:43.451Z,69.41
2023-03-17T05:29:10.656Z,70.24
2023-03-17T05:31:37.410Z,69.57
2023-03-17T05:34:04.259Z,68.58
2023-03-17T05:36:31.377Z,68.08
2023-03-17T05:38:58.480Z,68.50
2023-03-17T05:41:25.699Z,69.22
2023-03-17T05:43:52.329Z,69.08
2023-03-17T05:46:20.442Z,67.90
2023-03-17T05:48:47.299Z,66.89
2023-03-17T05:51:13.958Z,67.70
2023-03-17T05:53:41.129Z,69.34
2023-03-17T05:56:08.004Z,69.12
2023-03-17T05:58:35.051Z,68.45
2023-03-17T06:01:01.899Z,68.34
2023-03-17T06:03:28.553Z,67.96
2023-03-17T06:05:55.172Z,68.26
2023-03-17T06:08:21.824Z,69.45
2023-03-17T06:10:48.597Z,68.87
2023-03-17T06:13:15.549Z,68.50
2023-03-17T06:15:43.130Z,67.97
2023-03-17T06:18:12.231Z,66.00
2023-03-17T06:20:38.851Z,65.96
2023-03-17T06:23:06.951Z,67.18
2023-03-17T06:25:34.720Z,64.98
2023-03-17T06:28:03.879Z,66.66
2023-03-17T06:30:33.020Z,67.49
2023-03-17T06:33:01.210Z,66.80
2023-03-17T06:35:28.674Z,66.15
2023-03-17T06:37:55.535Z,67.63
2023-03-17T06:40:22.220Z,67.06
2023-03-17T06:42:48.853Z,65.45
2023-03-17T06:45:15.991Z,66.78
2023-03-17T06:47:42.757Z,65.07
2023-03-17T06:50:10.192Z,65.29
2023-03-17T06:52:37.617Z,64.49
2023-03-17T06:55:05.342Z,65.03
2023-03-17T06:57:32.473Z,64.43
2023-03-17T06:59:59.157Z,66.18
2023-03-17T07:02:26.406Z,63.99
2023-03-17T07:04:53.492Z,62.78
2023-03-17T07:07:21.167Z,64.97
2023-03-17T07:09:48.075Z,63.67
2023-03-17T07:12:14.850Z,64.13
2023-03-17T07:14:41.787Z,63.44
2023-03-17T07:17:12.288Z,63.01
2023-03-17T07:19:39.519Z,61.82
2023-03-17T07:22:07.094Z,64.01
2023-03-17T07:24:33.873Z,61.65
2023-03-17T07:27:00.561Z,62.00
2023-03-17T07:29:28.518Z,62.82
2023-03-17T07:31:55.195Z,60.92
2023-03-17T07:34:22.245Z,60.74
2023-03-17T07:36:48.873Z,62.77
2023-03-17T07:39:15.637Z,60.56
2023-03-17T07:41:43.992Z,60.61
2023-03-17T07:44:11.474Z,61.02
2023-03-17T07:46:39.013Z,61.30
2023-03-17T07:49:06.325Z,58.56
2023-03-17T07:51:33.167Z,59.41
2023-03-17T07:54:04.009Z,59.01
2023-03-17T07:56:31.636Z,61.00
2023-03-17T07:58:59.234Z,58.71
2023-03-17T08:01:26.542Z,58.02
2023-03-17T08:03:53.291Z,58.91
2023-03-17T08:06:20.363Z,57.70
2023-03-17T08:08:47.135Z,55.86
2023-03-17T08:11:14.309Z,57.11
2023-03-17T08:13:40.988Z,53.85
2023-03-17T08:16:08.124Z,55.98
2023-03-17T08:18:35.051Z,56.01
2023-03-17T08:21:02.125Z,53.69
2023-03-17T08:23:28.975Z,53.84
2023-03-17T08:26:03.333Z,53.01
2023-03-17T08:28:30.510Z,53.78
2023-03-17T08:31:12.846Z,52.69
2023-03-17T08:33:40.873Z,52.89
2023-03-17T08:36:09.484Z,52.41
2023-03-17T08:38:37.605Z,52.62
2023-03-17T08:41:06.775Z,52.39
2023-03-17T08:43:34.250Z,52.75
2023-03-17T08:46:07.253Z,51.43
2023-03-17T08:48:35.423Z,52.92
2023-03-17T08:51:02.142Z,51.44
2023-03-17T08:53:29.859Z,50.92
2023-03-17T08:55:57.350Z,51.29
2023-03-17T08:58:24.574Z,50.12
2023-03-17T09:00:52.445Z,50.42
2023-03-17T09:03:19.174Z,50.90
2023-03-17T09:05:45.785Z,49.48
2023-03-17T09:08:13.033Z,48.70
2023-03-17T09:10:44.092Z,50.70
2023-03-17T09:13:11.679Z,49.46
2023-03-17T09:15:38.892Z,49.21
2023-03-17T09:18:06.770Z,47.51
2023-03-17T09:20:34.031Z,47.04
2023-03-17T09:23:01.178Z,47.85
2023-03-17T09:25:27.796Z,48.26
2023-03-17T09:27:55.651Z,48.50
2023-03-17T09:30:22.319Z,46.43
2023-03-17T09:32:49.240Z,45.90
2023-03-17T09:35:16.011Z,47.75
2023-03-17T09:37:42.735Z,47.74
2023-03-17T09:40:13.605Z,46.39
2023-03-17T09:43:08.084Z,46.04
2023-03-17T09:45:42.959Z,45.48
2023-03-17T09:48:24.663Z,45.77
2023-03-17T09:50:56.528Z,44.51
2023-03-17T09:53:34.195Z,45.16
2023-03-17T09:56:06.106Z,43.99
2023-03-17T09:58:33.664Z,42.94
2023-03-17T10:01:01.638Z,44.55
2023-03-17T10:03:28.275Z,44.29
2023-03-17T10:06:13.201Z,43.50
2023-03-17T10:08:48.690Z,42.89
2023-03-17T10:11:31.437Z,44.97
2023-03-17T10:14:03.264Z,42.84
2023-03-17T10:16:53.926Z,41.23
2023-03-17T10:19:28.579Z,41.89
2023-03-17T10:22:05.456Z,41.26
2023-03-17T10:24:33.014Z,41.33
2023-03-17T10:27:03.782Z,42.03
2023-03-17T10:29:32.041Z,41.77
2023-03-17T10:31:58.999Z,41.55
2023-03-17T10:34:32.331Z,40.92
2023-03-17T10:37:09.598Z,40.79
2023-03-17T10:39:47.018Z,41.35
2023-03-17T10:42:27.152Z,39.73
2023-03-17T10:44:55.100Z,40.99
2023-03-17T10:47:38.113Z,40.64
2023-03-17T10:50:32.132Z,40.82
2023-03-17T10:53:03.452Z,40.03
2023-03-17T10:55:38.537Z,41.25
2023-03-17T10:58:15.836Z,40.82
2023-03-17T11:01:13.383Z,37.96
2023-03-17T11:03:40.383Z,40.92
2023-03-17T11:06:12.212Z,39.26
2023-03-17T11:08:42.023Z,37.90
2023-03-17T11:11:26.319Z,39.01
2023-03-17T11:14:19.565Z,36.83
2023-03-17T11:16:55.243Z,37.48
2023-03-17T11:19:31.048Z,36.89
2023-03-17T11:22:04.929Z,38.87
2023-03-17T11:24:36.395Z,37.08
2023-03-17T11:27:12.250Z,35.96
2023-03-17T11:30:14.865Z,38.68
2023-03-17T11:32:50.099Z,38.13
2023-03-17T11:35:38.363Z,37.09
2023-03-17T11:38:18.974Z,35.93
2023-03-17T11:41:04.861Z,35.58
2023-03-17T11:44:06.330Z,36.74
2023-03-17T11:46:37.245Z,36.43
2023-03-17T11:49:09.926Z,36.71
2023-03-17T11:52:03.541Z,35.81
2023-03-17T11:54:58.971Z,36.04
2023-03-17T11:57:32.873Z,34.97
2023-03-17T12:00:04.577Z,37.41
2023-03-17T12:02:43.787Z,34.78
2023-03-17T12:05:17.160Z,36.48
2023-03-17T12:07:48.096Z,34.78
2023-03-17T12:10:28.791Z,36.92
2023-03-17T12:12:59.636Z,36.46
2023-03-17T12:15:41.934Z,37.77
2023-03-17T12:18:18.662Z,36.53
2023-03-17T12:20:54.314Z,34.62
2023-03-17T12:23:42.396Z,35.91
2023-03-17T12:26:12.811Z,35.43
2023-03-17T12:28:48.720Z,34.87
2023-03-17T12:31:26.057Z,34.70
2023-03-17T12:34:16.933Z,35.44
2023-03-17T12:36:44.015Z,36.67
2023-03-17T12:39:16.358Z,35.71
2023-03-17T12:42:18.664Z,35.40
2023-03-17T12:44:59.840Z,36.11
2023-03-17T12:47:50.441Z,35.99
2023-03-17T12:50:25.976Z,37.73
2023-03-17T12:53:04.392Z,37.02
2023-03-17T12:55:33.129Z,37.50
2023-03-17T12:58:05.841Z,37.20
2023-03-17T13:00:50.633Z,36.46
2023-03-17T13:03:23.624Z,38.72
2023-03-17T13:05:52.878Z,37.72
2023-03-17T13:08:25.591Z,38.96
2023-03-17T13:11:18.988Z,37.46
2023-03-17T13:13:54.821Z,38.91
2023-03-17T13:16:41.331Z,37.43
2023-03-17T13:19:18.727Z,37.16
2023-03-17T13:22:13.237Z,36.30
2023-03-17T13:24:53.091Z,37.52
2023-03-17T13:27:42.341Z,38.05
2023-03-17T13:30:26.250Z,39.47
2023-03-17T13:32:57.153Z,37.56
2023-03-17T13:35:46.866Z,37.77
2023-03-17T13:38:27.140Z,37.85
2023-03-17T13:41:21.660Z,37.52
2023-03-17T13:43:57.544Z,36.41
2023-03-17T13:46:36.595Z,36.89
2023-03-17T13:49:15.253Z,38.25
2023-03-17T13:51:52.739Z,38.66
2023-03-17T13:54:28.748Z,38.38
2023-03-17T13:56:56.851Z,37.82
2023-03-17T13:59:55.484Z,38.47
2023-03-17T14:02:23.908Z,38.47
2023-03-17T14:04:56.402Z,37.89
2023-03-17T14:07:25.878Z,37.98
2023-03-17T14:09:59.105Z,39.06
2023-03-17T14:12:32.595Z,38.97
2023-03-17T14:15:16.647Z,39.63
2023-03-17T14:17:49.970Z,36.55
2023-03-17T14:20:16.894Z,37.91
2023-03-17T14:22:46.122Z,37.32
2023-03-17T14:25:18.557Z,38.14
2023-03-17T14:27:49.639Z,36.82
2023-03-17T14:30:19.774Z,38.05
2023-03-17T14:32:59.953Z,38.73
2023-03-17T14:35:37.613Z,38.52
2023-03-17T14:38:16.320Z,38.41
2023-03-17T14:40:42.933Z,39.05
2023-03-17T14:43:10.578Z,39.50
2023-03-17T14:45:48.357Z,39.08
2023-03-17T14:48:17.657Z,37.15
2023-03-17T14:50:53.450Z,38.06
2023-03-17T14:53:22.381Z,38.43
2023-03-17T14:55:48.986Z,39.10
2023-03-17T14:58:24.373Z,38.80
2023-03-17T15:01:03.108Z,39.97
2023-03-17T15:03:32.994Z,39.71
2023-03-17T15:06:23.178Z,40.91
2023-03-17T15:08:50.884Z,41.55
2023-03-17T15:11:23.946Z,39.37
2023-03-17T15:13:54.286Z,39.64
2023-03-17T16:11:20.600Z,42.07
2023-03-17T16:13:47.656Z,42.09
2023-03-17T16:16:26.395Z,43.47
2023-03-17T16:18:53.585Z,41.98
2023-03-17T16:21:20.661Z,42.07
2023-03-17T16:23:48.568Z,43.72
2023-03-17T16:26:17.015Z,43.99
2023-03-17T16:28:46.176Z,43.01
2023-03-17T16:31:25.954Z,42.69
2023-03-17T16:33:55.579Z,43.37
2023-03-17T16:36:23.763Z,43.19
2023-03-17T16:38:51.269Z,44.43
2023-03-17T16:41:21.992Z,43.83
2023-03-17T16:43:53.581Z,42.11
2023-03-17T16:46:21.375Z,42.94
2023-03-17T16:48:49.482Z,42.40
2023-03-17T16:51:16.377Z,43.27
2023-03-17T16:53:43.302Z,43.99
2023-03-17T16:56:16.572Z,42.64
2023-03-17T16:58:43.622Z,43.78
2023-03-17T17:01:22.515Z,43.33
2023-03-17T17:03:49.606Z,43.91
2023-03-17T17:06:16.688Z,42.85
2023-03-17T17:08:44.741Z,43.20
2023-03-17T17:11:14.815Z,43.22
2023-03-17T17:13:42.273Z,42.97
2023-03-17T17:16:19.513Z,43.37
2023-03-17T17:18:47.399Z,43.89
2023-03-17T17:21:15.352Z,45.71
2023-03-17T17:23:41.973Z,43.65
2023-03-17T17:26:08.648Z,42.47
2023-03-17T17:28:35.284Z,42.59
2023-03-17T17:31:02.083Z,43.69
2023-03-17T17:33:28.798Z,43.93
2023-03-17T17:35:55.759Z,44.01
2023-03-17T17:38:28.453Z,44.45
2023-03-17T17:40:57.364Z,44.94
2023-03-17T17:43:27.392Z,45.36
2023-03-17T17:45:54.709Z,45.84
2023-03-17T17:48:23.578Z,46.41
2023-03-17T17:50:51.801Z,46.70
2023-03-17T17:53:18.733Z,46.87
2023-03-17T17:55:47.107Z,45.53
2023-03-17T17:58:22.866Z,45.77
2023-03-17T18:00:49.958Z,45.75
2023-03-17T18:03:17.030Z,46.54
2023-03-17T18:05:44.337Z,46.27
2023-03-17T18:08:13.704Z,46.15
2023-03-17T18:10:40.381Z,45.97
2023-03-17T18:13:07.045Z,46.93
2023-03-17T18:15:33.945Z,46.74
2023-03-17T18:18:00.633Z,47.26
2023-03-17T18:20:27.654Z,47.57
2023-03-17T18:22:54.461Z,47.44
2023-03-17T18:25:21.283Z,47.20
2023-03-17T18:27:47.919Z,47.00
2023-03-17T18:30:23.301Z,48.53
2023-03-17T18:32:51.103Z,48.69
2023-03-17T18:35:19.961Z,49.21
2023-03-17T18:37:46.829Z,47.84
2023-03-17T18:40:17.215Z,48.91
2023-03-17T18:42:45.704Z,47.53
2023-03-17T18:45:12.890Z,47.82
2023-03-17T18:47:41.758Z,48.69
2023-03-17T18:50:11.423Z,48.40
2023-03-17T18:52:40.997Z,48.41
2023-03-17T18:55:09.435Z,48.42
2023-03-17T18:57:36.741Z,47.33
2023-03-17T19:00:05.201Z,47.81
2023-03-17T19:02:31.931Z,46.61
2023-03-17T19:04:58.540Z,46.33
2023-03-17T19:07:25.326Z,47.19
2023-03-17T19:09:51.947Z,47.81
2023-03-17T19:12:18.796Z,47.01
2023-03-17T19:14:45.584Z,47.56
2023-03-17T19:17:12.237Z,47.83
2023-03-17T19:19:40.579Z,47.82
2023-03-17T19:22:07.735Z,47.84
2023-03-17T19:24:35.692Z,47.84
2023-03-17T19:27:02.310Z,48.10
2023-03-17T19:29:28.920Z,47.15
2023-03-17T19:31:55.668Z,48.49
2023-03-17T19:34:23.276Z,47.54
2023-03-17T19:36:54.092Z,48.48
2023-03-17T19:39:21.662Z,47.73
2023-03-17T19:41:53.348Z,49.20
2023-03-17T19:44:19.960Z,48.64
2023-03-17T19:46:46.675Z,49.53
2023-03-17T19:49:15.227Z,49.37
2023-03-17T19:51:42.573Z,49.24
2023-03-17T19:54:11.236Z,48.24
2023-03-17T19:56:38.756Z,48.93
2023-03-17T19:59:09.062Z,48.13
2023-03-17T20:01:38.074Z,49.69
2023-03-17T20:04:06.912Z,49.62
2023-03-17T20:06:34.649Z,50.98
2023-03-17T20:09:04.107Z,49.61
2023-03-17T20:11:33.912Z,49.74
2023-03-17T20:14:01.347Z,49.35
2023-03-17T20:16:28.001Z,49.34
2023-03-17T20:18:54.628Z,50.16
2023-03-17T20:21:21.294Z,50.21
2023-03-17T20:23:47.995Z,49.85
2023-03-17T20:26:14.660Z,50.60
2023-03-17T20:28:41.613Z,51.75
2023-03-17T20:31:09.198Z,51.45
2023-03-17T20:33:36.096Z,51.00
2023-03-17T20:36:05.981Z,51.22
2023-03-17T20:38:36.798Z,51.14
2023-03-17T20:41:12.712Z,50.90
2023-03-17T20:43:40.396Z,49.89
2023-03-17T20:46:09.200Z,51.34
2023-03-17T20:48:37.130Z,51.54
2023-03-17T20:51:06.291Z,51.14
2023-03-17T20:53:34.477Z,51.08
2023-03-17T20:56:01.132Z,52.03
2023-03-17T20:58:27.973Z,52.45
2023-03-17T21:00:55.023Z,51.94
2023-03-17T21:03:21.824Z,52.29
2023-03-17T21:05:48.519Z,52.77
2023-03-17T21:08:15.572Z,52.78
2023-03-17T21:10:42.163Z,53.29
2023-03-17T21:13:08.947Z,52.01
2023-03-17T21:15:36.127Z,52.32
2023-03-17T21:18:02.845Z,53.68
2023-03-17T21:20:29.867Z,53.17
2023-03-17T21:22:56.794Z,53.83
2023-03-17T21:25:23.532Z,53.20
2023-03-17T21:27:50.862Z,53.29
2023-03-17T21:30:17.529Z,53.18
2023-03-17T21:32:44.179Z,53.17
2023-03-17T21:35:10.810Z,52.74
2023-03-17T21:37:37.553Z,53.16
2023-03-17T21:40:08.218Z,53.66
2023-03-17T21:42:34.909Z,52.86
2023-03-17T21:45:01.567Z,53.54
2023-03-17T21:47:30.021Z,54.65
2023-03-17T21:49:57.917Z,53.64
2023-03-17T21:52:26.083Z,54.01
2023-03-17T21:54:53.328Z,54.42
2023-03-17T21:57:20.082Z,54.64
2023-03-17T21:59:49.011Z,54.42
2023-03-17T22:02:18.695Z,54.17
2023-03-17T22:04:46.880Z,53.45
2023-03-17T22:07:13.937Z,54.79
2023-03-17T22:09:40.542Z,55.53
2023-03-17T22:12:07.892Z,52.89
2023-03-17T22:14:35.721Z,54.64
2023-03-17T22:17:03.195Z,55.20
2023-03-17T22:19:29.813Z,55.00
2023-03-17T22:21:56.612Z,55.83
2023-03-17T22:24:23.430Z,55.68
2023-03-17T22:26:50.043Z,55.52
2023-03-17T22:29:16.747Z,54.91
2023-03-17T22:31:43.419Z,56.02
2023-03-17T22:34:10.080Z,55.72
2023-03-17T22:36:37.474Z,55.58
2023-03-17T22:39:08.713Z,54.81
2023-03-17T22:41:35.358Z,56.10
2023-03-17T22:44:02.484Z,55.18
2023-03-17T22:46:29.156Z,55.97
2023-03-17T22:48:58.213Z,55.28
2023-03-17T22:51:26.557Z,55.16
2023-03-17T22:53:53.386Z,56.29
2023-03-17T22:56:20.278Z,54.48
2023-03-17T22:58:47.363Z,56.08
2023-03-17T23:01:16.464Z,56.83
2023-03-17T23:03:44.346Z,58.80
2023-03-17T23:06:11.476Z,56.30
2023-03-17T23:08:39.177Z,55.76
2023-03-17T23:11:22.191Z,56.87
2023-03-17T23:13:49.344Z,56.97
2023-03-17T23:16:20.245Z,55.79
2023-03-17T23:18:47.237Z,55.46
2023-03-17T23:21:27.696Z,56.99
2023-03-17T23:23:54.727Z,57.09
2023-03-17T23:26:21.613Z,57.30
2023-03-17T23:28:49.631Z,56.85
2023-03-17T23:31:16.861Z,56.10
2023-03-17T23:33:43.884Z,57.45
2023-03-17T23:36:11.223Z,55.63
2023-03-17T23:38:39.987Z,58.22
2023-03-17T23:41:07.725Z,55.99
2023-03-17T23:43:34.737Z,56.42
2023-03-17T23:46:01.718Z,58.51
2023-03-17T23:48:28.907Z,58.00
2023-03-17T23:50:55.752Z,58.47
2023-03-17T23:53:24.156Z,57.32
2023-03-17T23:55:54.443Z,57.77
2023-03-17T23:58:21.923Z,57.50
